Kahului, HI

7:44 AM HST on October 02, 2014 (GMT -1000)
Lahaina | Change Station
CLOSE
Current Station
Airport
Location: Lahaina,
Elevation: 256 ft
Nearby Weather Stations
Active Advisory: High Surf Advisory

Elev 256 ft 20.96 °N, 156.67 °W | Updated 59 minutes ago

Partly Cloudy
Partly Cloudy
73 °F
Feels Like 73 °F
N
0
Wind Variable Wind from North

Today
High -- | Low -- °F
--% Chance of Precip.
Yesterday
High -- | Low -- °F
Precip. -- in
6:17 AM 6:12 PM
First Quarter, 60% visible
Pressure 29.95 in
Visibility 15.0 miles
Clouds Few 2500 ft
Few 6000 ft
Dew Point 68 °F
Humidity 83%
Rainfall 0.00 in
Snow Depth Not available.
UV 0 out of 12
Pollen Not available.
Air Quality Not available.
Flu Activity Not available.
METAR PHJH 021645Z 00000KT 15SM FEW025 FEW060 23/20 A2995

More Conditions Fewer Conditions

Pressure 29.95 in
Visibility 15.0 miles
Clouds Few 2500 ft
Few 6000 ft
Dew Point 68 °F
Humidity 83%
Rainfall 0.00 in
Snow Depth Not available.
UV 0 out of 12
Pollen Not available.
Air Quality Not available.
Flu Activity Not available.
METAR PHJH 021645Z 00000KT 15SM FEW025 FEW060 23/20 A2995

More Conditions Fewer Conditions

10-Day Weather Forecast

Almanac

Astronomy

Oct. 02, 2014 Rise Set
Actual Time 6:17 AM HST 6:12 PM HST
Civil Twilight 5:55 AM HST 6:34 PM HST
Nautical Twilight 5:29 AM HST 7:00 PM HST
Astronomical Twilight 5:03 AM HST 7:26 PM HST
Moon 1:50 PM HST 12:26 AM HST
Length of Visible Light 12h 39m
Length of Day
11h 55m
Tomorrow will be 1m 10s shorter.
First Quarter, 60% of the Moon is Illuminated
Today
First Quarter
Oct 8
Full
Oct 15
Last Quarter
Oct 23
New
Oct 30
First Quarter

Today's Extremes

State Highs State Lows

Community

WunderPhotos

Upload Photos

1,758,312 photos uploaded!

Nearby

Snow Depth

Station Depth Elevation
No new snow has been reported.

Earthquake Activity

City Distance Mag. Time & Date
No recent earthquake activity has been reported nearby.
Minimum magnitude displayed is 2.5.

Coastal Water Temperatures

Place Temperature
No Stations Reporting

Nearby Weather Stations